To NAV CANADA Home Page Login to a new session Search on AWWS site Feedback and Comments Disclaimer Vers la page française équivalente Tips FAQ What's new on the site To the Forecasts and Observations / NOTAM section To "File a Flight Plan" website Publications and other links Update of the User's profile FIC Telephone Numbers My Weather Data Folder Route Weather Data Regional Weather Data Local Weather Data To the Forecasts and Observations / NOTAM section
Request Generated 04/23/2014 at 14:20:57 UTC . Weather information available at that time is displayed.

METAR/TAF

SUDBURY/ON    

METAR CYSB 231400Z 35014KT 20SM SKC M01/M11 A3000 RMK SLP175=
METAR CYSB 231300Z 35013G21KT 20SM FEW220 M03/M11 A2999 RMK CI2
SLP172=
METAR CYSB 231200Z 36014KT 20SM FEW210 M04/M10 A2998 RMK CI1 SLP169=

TAF CYSB 231338Z 2314/2402 35010G20KT P6SM FEW220
BECMG 2314/2316 35015KT
RMK NXT FCST BY 232000Z=
Your time UTC time
Weather data provided by Environment Canada and NAV CANADA